sensor_id;sensor_type;location;lat;lon;timestamp;temperature;humidity
45137;DHT22;30894;51.740;19.498;2023-08-07T00:01:07;13.50;99.90
45137;DHT22;30894;51.740;19.498;2023-08-07T00:03:34;13.40;99.90
45137;DHT22;30894;51.740;19.498;2023-08-07T00:06:01;13.50;99.90
45137;DHT22;30894;51.740;19.498;2023-08-07T00:08:27;13.50;99.90
45137;DHT22;30894;51.740;19.498;2023-08-07T00:11:03;13.50;99.90
45137;DHT22;30894;51.740;19.498;2023-08-07T00:13:30;13.50;99.90
45137;DHT22;30894;51.740;19.498;2023-08-07T00:15:56;13.40;99.90
45137;DHT22;30894;51.740;19.498;2023-08-07T00:18:22;13.30;99.90
45137;DHT22;30894;51.740;19.498;2023-08-07T00:20:48;13.40;99.90
45137;DHT22;30894;51.740;19.498;2023-08-07T00:23:14;13.20;99.90
45137;DHT22;30894;51.740;19.498;2023-08-07T00:25:40;13.20;99.90
45137;DHT22;30894;51.740;19.498;2023-08-07T00:28:06;13.20;99.90
45137;DHT22;30894;51.740;19.498;2023-08-07T00:30:32;13.20;99.90
45137;DHT22;30894;51.740;19.498;2023-08-07T00:32:58;13.20;99.90
45137;DHT22;30894;51.740;19.498;2023-08-07T00:35:24;13.20;99.90
45137;DHT22;30894;51.740;19.498;2023-08-07T00:37:51;13.20;99.90
45137;DHT22;30894;51.740;19.498;2023-08-07T00:40:17;13.10;99.90
45137;DHT22;30894;51.740;19.498;2023-08-07T00:42:43;13.10;99.90
45137;DHT22;30894;51.740;19.498;2023-08-07T00:45:09;13.10;99.90
45137;DHT22;30894;51.740;19.498;2023-08-07T00:47:36;12.90;99.90
45137;DHT22;30894;51.740;19.498;2023-08-07T00:50:04;13.00;99.90
45137;DHT22;30894;51.740;19.498;2023-08-07T00:52:32;13.00;99.90
45137;DHT22;30894;51.740;19.498;2023-08-07T00:54:58;13.00;99.90
45137;DHT22;30894;51.740;19.498;2023-08-07T00:57:24;13.00;99.90
45137;DHT22;30894;51.740;19.498;2023-08-07T00:59:51;13.00;99.90
45137;DHT22;30894;51.740;19.498;2023-08-07T01:02:18;13.00;99.90
45137;DHT22;30894;51.740;19.498;2023-08-07T01:04:44;12.90;99.90
45137;DHT22;30894;51.740;19.498;2023-08-07T01:07:12;13.00;99.90
45137;DHT22;30894;51.740;19.498;2023-08-07T01:09:38;12.90;99.90
45137;DHT22;30894;51.740;19.498;2023-08-07T01:17:28;13.00;99.90
45137;DHT22;30894;51.740;19.498;2023-08-07T01:19:55;13.10;99.90
45137;DHT22;30894;51.740;19.498;2023-08-07T01:22:23;13.10;99.90
45137;DHT22;30894;51.740;19.498;2023-08-07T01:24:50;13.10;99.90
45137;DHT22;30894;51.740;19.498;2023-08-07T01:35:46;13.10;99.90
45137;DHT22;30894;51.740;19.498;2023-08-07T01:38:14;13.10;99.90
45137;DHT22;30894;51.740;19.498;2023-08-07T01:40:41;13.10;99.90
45137;DHT22;30894;51.740;19.498;2023-08-07T01:43:09;13.10;99.90
45137;DHT22;30894;51.740;19.498;2023-08-07T01:45:35;13.10;99.90
45137;DHT22;30894;51.740;19.498;2023-08-07T01:48:01;13.10;99.90
45137;DHT22;30894;51.740;19.498;2023-08-07T01:50:27;13.10;99.90
45137;DHT22;30894;51.740;19.498;2023-08-07T01:52:53;13.20;99.90
45137;DHT22;30894;51.740;19.498;2023-08-07T01:55:22;13.10;99.90
45137;DHT22;30894;51.740;19.498;2023-08-07T01:57:49;13.10;99.90
45137;DHT22;30894;51.740;19.498;2023-08-07T02:00:15;13.10;99.90
45137;DHT22;30894;51.740;19.498;2023-08-07T02:02:41;13.20;99.90
45137;DHT22;30894;51.740;19.498;2023-08-07T02:05:07;13.10;99.90
45137;DHT22;30894;51.740;19.498;2023-08-07T02:07:34;13.10;99.90
45137;DHT22;30894;51.740;19.498;2023-08-07T02:10:00;13.10;99.90
45137;DHT22;30894;51.740;19.498;2023-08-07T02:12:26;13.10;99.90
45137;DHT22;30894;51.740;19.498;2023-08-07T02:14:53;13.20;99.90
45137;DHT22;30894;51.740;19.498;2023-08-07T02:17:21;13.10;99.90
45137;DHT22;30894;51.740;19.498;2023-08-07T02:19:48;13.10;99.90
45137;DHT22;30894;51.740;19.498;2023-08-07T02:22:14;13.10;99.90
45137;DHT22;30894;51.740;19.498;2023-08-07T02:24:40;13.10;99.90
45137;DHT22;30894;51.740;19.498;2023-08-07T02:27:07;13.20;99.90
45137;DHT22;30894;51.740;19.498;2023-08-07T02:29:32;13.10;99.90
45137;DHT22;30894;51.740;19.498;2023-08-07T02:32:01;13.20;99.90
45137;DHT22;30894;51.740;19.498;2023-08-07T02:34:31;13.20;99.90
45137;DHT22;30894;51.740;19.498;2023-08-07T02:36:58;13.20;99.90
45137;DHT22;30894;51.740;19.498;2023-08-07T02:39:25;13.20;99.90
45137;DHT22;30894;51.740;19.498;2023-08-07T02:41:51;13.10;99.90
45137;DHT22;30894;51.740;19.498;2023-08-07T02:44:17;13.20;99.90
45137;DHT22;30894;51.740;19.498;2023-08-07T02:46:44;13.20;99.90
45137;DHT22;30894;51.740;19.498;2023-08-07T02:49:10;13.20;99.90
45137;DHT22;30894;51.740;19.498;2023-08-07T02:51:36;13.20;99.90
45137;DHT22;30894;51.740;19.498;2023-08-07T02:54:02;13.20;99.90
45137;DHT22;30894;51.740;19.498;2023-08-07T02:56:29;13.20;99.90
45137;DHT22;30894;51.740;19.498;2023-08-07T02:58:55;13.00;99.90
45137;DHT22;30894;51.740;19.498;2023-08-07T03:01:24;13.10;99.90
45137;DHT22;30894;51.740;19.498;2023-08-07T03:03:50;13.10;99.90
45137;DHT22;30894;51.740;19.498;2023-08-07T03:06:16;13.10;99.90
45137;DHT22;30894;51.740;19.498;2023-08-07T03:08:42;13.00;99.90
45137;DHT22;30894;51.740;19.498;2023-08-07T03:11:08;13.10;99.90
45137;DHT22;30894;51.740;19.498;2023-08-07T03:13:35;13.10;99.90
45137;DHT22;30894;51.740;19.498;2023-08-07T03:16:02;13.10;99.90
45137;DHT22;30894;51.740;19.498;2023-08-07T03:18:30;13.10;99.90
45137;DHT22;30894;51.740;19.498;2023-08-07T03:20:57;13.10;99.90
45137;DHT22;30894;51.740;19.498;2023-08-07T03:23:24;13.10;99.90
45137;DHT22;30894;51.740;19.498;2023-08-07T03:26:10;13.10;99.90
45137;DHT22;30894;51.740;19.498;2023-08-07T03:28:37;13.10;99.90
45137;DHT22;30894;51.740;19.498;2023-08-07T03:31:04;13.00;99.90
45137;DHT22;30894;51.740;19.498;2023-08-07T03:33:30;12.90;99.90
45137;DHT22;30894;51.740;19.498;2023-08-07T03:35:56;12.80;99.90
45137;DHT22;30894;51.740;19.498;2023-08-07T03:38:22;12.80;99.90
45137;DHT22;30894;51.740;19.498;2023-08-07T03:40:49;12.80;99.90
45137;DHT22;30894;51.740;19.498;2023-08-07T03:43:15;12.70;99.90
45137;DHT22;30894;51.740;19.498;2023-08-07T03:45:42;12.80;99.90
45137;DHT22;30894;51.740;19.498;2023-08-07T03:48:08;12.90;99.90
45137;DHT22;30894;51.740;19.498;2023-08-07T03:50:34;12.90;99.90
45137;DHT22;30894;51.740;19.498;2023-08-07T03:53:03;13.00;99.90
45137;DHT22;30894;51.740;19.498;2023-08-07T03:55:32;12.90;99.90
45137;DHT22;30894;51.740;19.498;2023-08-07T03:57:58;13.00;99.90
45137;DHT22;30894;51.740;19.498;2023-08-07T04:00:24;13.00;99.90
45137;DHT22;30894;51.740;19.498;2023-08-07T04:02:50;13.10;99.90
45137;DHT22;30894;51.740;19.498;2023-08-07T04:05:17;13.10;99.90
45137;DHT22;30894;51.740;19.498;2023-08-07T04:07:42;13.00;99.90
45137;DHT22;30894;51.740;19.498;2023-08-07T04:10:09;13.00;99.90
45137;DHT22;30894;51.740;19.498;2023-08-07T04:12:35;12.90;99.90
45137;DHT22;30894;51.740;19.498;2023-08-07T04:15:01;12.90;99.90
45137;DHT22;30894;51.740;19.498;2023-08-07T04:17:27;12.90;99.90
45137;DHT22;30894;51.740;19.498;2023-08-07T04:19:53;12.90;99.90
45137;DHT22;30894;51.740;19.498;2023-08-07T04:22:19;13.00;99.90
45137;DHT22;30894;51.740;19.498;2023-08-07T04:24:46;13.10;99.90
45137;DHT22;30894;51.740;19.498;2023-08-07T04:27:12;13.10;99.90
45137;DHT22;30894;51.740;19.498;2023-08-07T04:29:38;13.20;99.90
45137;DHT22;30894;51.740;19.498;2023-08-07T04:32:05;13.30;99.90
45137;DHT22;30894;51.740;19.498;2023-08-07T04:34:31;13.40;99.90
45137;DHT22;30894;51.740;19.498;2023-08-07T04:36:57;13.50;99.90
45137;DHT22;30894;51.740;19.498;2023-08-07T04:39:23;13.50;99.90
45137;DHT22;30894;51.740;19.498;2023-08-07T04:41:49;13.60;99.90
45137;DHT22;30894;51.740;19.498;2023-08-07T04:44:16;13.70;99.90
45137;DHT22;30894;51.740;19.498;2023-08-07T04:46:42;13.80;99.90
45137;DHT22;30894;51.740;19.498;2023-08-07T04:49:08;13.90;99.90
45137;DHT22;30894;51.740;19.498;2023-08-07T04:51:34;14.00;99.90
45137;DHT22;30894;51.740;19.498;2023-08-07T04:54:00;14.00;99.90
45137;DHT22;30894;51.740;19.498;2023-08-07T04:56:26;14.20;99.90
45137;DHT22;30894;51.740;19.498;2023-08-07T04:58:53;14.40;99.90
45137;DHT22;30894;51.740;19.498;2023-08-07T05:01:25;14.70;99.90
45137;DHT22;30894;51.740;19.498;2023-08-07T05:03:51;14.90;99.90
45137;DHT22;30894;51.740;19.498;2023-08-07T05:06:17;15.00;99.90
45137;DHT22;30894;51.740;19.498;2023-08-07T05:08:45;15.20;99.90
45137;DHT22;30894;51.740;19.498;2023-08-07T05:11:10;15.40;99.90
45137;DHT22;30894;51.740;19.498;2023-08-07T05:13:37;15.40;99.90
45137;DHT22;30894;51.740;19.498;2023-08-07T05:16:03;15.50;99.90
45137;DHT22;30894;51.740;19.498;2023-08-07T05:18:29;15.50;99.90
45137;DHT22;30894;51.740;19.498;2023-08-07T05:20:55;15.60;99.90
45137;DHT22;30894;51.740;19.498;2023-08-07T05:23:21;15.80;99.90
45137;DHT22;30894;51.740;19.498;2023-08-07T05:25:47;15.90;99.90
45137;DHT22;30894;51.740;19.498;2023-08-07T05:28:14;16.00;99.90
45137;DHT22;30894;51.740;19.498;2023-08-07T05:30:40;16.00;99.90
45137;DHT22;30894;51.740;19.498;2023-08-07T05:33:06;16.10;99.90
45137;DHT22;30894;51.740;19.498;2023-08-07T05:35:32;16.10;99.90
45137;DHT22;30894;51.740;19.498;2023-08-07T05:37:59;16.00;99.90
45137;DHT22;30894;51.740;19.498;2023-08-07T05:40:25;16.00;99.90
45137;DHT22;30894;51.740;19.498;2023-08-07T05:42:51;16.00;99.90
45137;DHT22;30894;51.740;19.498;2023-08-07T05:45:17;16.00;99.90
45137;DHT22;30894;51.740;19.498;2023-08-07T05:47:43;15.90;99.90
45137;DHT22;30894;51.740;19.498;2023-08-07T05:50:09;16.00;99.90
45137;DHT22;30894;51.740;19.498;2023-08-07T05:52:35;16.20;99.90
45137;DHT22;30894;51.740;19.498;2023-08-07T05:55:02;16.20;99.90
45137;DHT22;30894;51.740;19.498;2023-08-07T05:57:29;16.30;99.90
45137;DHT22;30894;51.740;19.498;2023-08-07T05:59:55;16.40;99.90
45137;DHT22;30894;51.740;19.498;2023-08-07T06:02:21;16.50;99.90
45137;DHT22;30894;51.740;19.498;2023-08-07T06:04:47;16.70;99.90
45137;DHT22;30894;51.740;19.498;2023-08-07T06:07:14;16.90;99.90
45137;DHT22;30894;51.740;19.498;2023-08-07T06:09:40;17.00;99.90
45137;DHT22;30894;51.740;19.498;2023-08-07T06:12:06;17.50;99.90
45137;DHT22;30894;51.740;19.498;2023-08-07T06:14:33;17.70;99.90
45137;DHT22;30894;51.740;19.498;2023-08-07T06:16:59;17.90;99.90
45137;DHT22;30894;51.740;19.498;2023-08-07T06:19:27;18.30;99.90
45137;DHT22;30894;51.740;19.498;2023-08-07T06:21:53;18.60;99.90
45137;DHT22;30894;51.740;19.498;2023-08-07T06:24:22;18.70;99.90
45137;DHT22;30894;51.740;19.498;2023-08-07T06:26:49;18.80;99.90
45137;DHT22;30894;51.740;19.498;2023-08-07T06:29:15;19.00;99.90
45137;DHT22;30894;51.740;19.498;2023-08-07T06:31:42;19.20;99.90
45137;DHT22;30894;51.740;19.498;2023-08-07T06:34:08;19.40;99.90
45137;DHT22;30894;51.740;19.498;2023-08-07T06:36:35;19.60;99.90
45137;DHT22;30894;51.740;19.498;2023-08-07T06:39:01;19.70;99.90
45137;DHT22;30894;51.740;19.498;2023-08-07T06:41:28;20.00;99.90
45137;DHT22;30894;51.740;19.498;2023-08-07T06:43:54;20.30;99.90
45137;DHT22;30894;51.740;19.498;2023-08-07T06:46:20;20.50;99.90
45137;DHT22;30894;51.740;19.498;2023-08-07T06:48:50;21.00;99.90
45137;DHT22;30894;51.740;19.498;2023-08-07T06:51:16;21.40;99.90
45137;DHT22;30894;51.740;19.498;2023-08-07T06:53:42;21.40;99.90
45137;DHT22;30894;51.740;19.498;2023-08-07T06:56:08;21.30;99.90
45137;DHT22;30894;51.740;19.498;2023-08-07T06:58:34;21.30;99.90
45137;DHT22;30894;51.740;19.498;2023-08-07T07:01:01;21.30;99.90
45137;DHT22;30894;51.740;19.498;2023-08-07T07:03:27;21.10;99.90
45137;DHT22;30894;51.740;19.498;2023-08-07T07:05:53;20.80;99.90
45137;DHT22;30894;51.740;19.498;2023-08-07T07:08:19;21.10;99.90
45137;DHT22;30894;51.740;19.498;2023-08-07T07:10:45;21.20;99.90
45137;DHT22;30894;51.740;19.498;2023-08-07T07:13:11;21.10;99.90
45137;DHT22;30894;51.740;19.498;2023-08-07T07:15:38;21.00;99.90
45137;DHT22;30894;51.740;19.498;2023-08-07T07:18:04;21.30;99.90
45137;DHT22;30894;51.740;19.498;2023-08-07T07:20:31;21.50;99.90
45137;DHT22;30894;51.740;19.498;2023-08-07T07:22:57;21.50;99.90
45137;DHT22;30894;51.740;19.498;2023-08-07T07:25:23;21.80;99.90
45137;DHT22;30894;51.740;19.498;2023-08-07T07:27:49;21.90;99.90
45137;DHT22;30894;51.740;19.498;2023-08-07T07:30:15;22.00;99.30
45137;DHT22;30894;51.740;19.498;2023-08-07T07:32:42;22.10;99.30
45137;DHT22;30894;51.740;19.498;2023-08-07T07:35:09;22.40;98.50
45137;DHT22;30894;51.740;19.498;2023-08-07T07:37:35;22.60;98.60
45137;DHT22;30894;51.740;19.498;2023-08-07T07:40:02;23.10;97.70
45137;DHT22;30894;51.740;19.498;2023-08-07T07:42:31;23.80;96.20
45137;DHT22;30894;51.740;19.498;2023-08-07T07:44:57;24.40;94.80
45137;DHT22;30894;51.740;19.498;2023-08-07T07:47:23;24.30;94.30
45137;DHT22;30894;51.740;19.498;2023-08-07T07:50:07;23.90;95.10
45137;DHT22;30894;51.740;19.498;2023-08-07T07:52:34;24.10;95.00
45137;DHT22;30894;51.740;19.498;2023-08-07T07:55:02;23.90;94.90
45137;DHT22;30894;51.740;19.498;2023-08-07T07:57:28;23.80;94.80
45137;DHT22;30894;51.740;19.498;2023-08-07T07:59:54;23.90;95.20
45137;DHT22;30894;51.740;19.498;2023-08-07T08:02:21;24.30;94.60
45137;DHT22;30894;51.740;19.498;2023-08-07T08:04:51;24.80;93.30
45137;DHT22;30894;51.740;19.498;2023-08-07T08:07:20;24.60;92.70
45137;DHT22;30894;51.740;19.498;2023-08-07T08:09:47;24.60;93.00
45137;DHT22;30894;51.740;19.498;2023-08-07T08:12:13;24.60;92.50
45137;DHT22;30894;51.740;19.498;2023-08-07T08:14:39;24.50;92.50
45137;DHT22;30894;51.740;19.498;2023-08-07T08:17:06;24.10;92.50
45137;DHT22;30894;51.740;19.498;2023-08-07T08:19:33;23.90;92.40
45137;DHT22;30894;51.740;19.498;2023-08-07T08:21:59;23.60;92.80
45137;DHT22;30894;51.740;19.498;2023-08-07T08:24:25;23.70;93.10
45137;DHT22;30894;51.740;19.498;2023-08-07T08:26:51;24.00;92.30
45137;DHT22;30894;51.740;19.498;2023-08-07T08:29:18;24.20;91.60
45137;DHT22;30894;51.740;19.498;2023-08-07T08:31:44;24.60;91.20
45137;DHT22;30894;51.740;19.498;2023-08-07T08:34:10;25.10;90.30
45137;DHT22;30894;51.740;19.498;2023-08-07T08:36:36;25.30;88.80
45137;DHT22;30894;51.740;19.498;2023-08-07T08:39:02;25.90;87.20
45137;DHT22;30894;51.740;19.498;2023-08-07T08:41:29;26.80;84.70
45137;DHT22;30894;51.740;19.498;2023-08-07T08:43:57;27.30;82.50
45137;DHT22;30894;51.740;19.498;2023-08-07T08:46:28;27.60;81.20
45137;DHT22;30894;51.740;19.498;2023-08-07T08:48:57;27.40;80.10
45137;DHT22;30894;51.740;19.498;2023-08-07T08:51:24;27.00;80.30
45137;DHT22;30894;51.740;19.498;2023-08-07T08:53:52;26.50;81.10
45137;DHT22;30894;51.740;19.498;2023-08-07T08:56:23;26.30;81.10
45137;DHT22;30894;51.740;19.498;2023-08-07T08:58:50;25.70;82.40
45137;DHT22;30894;51.740;19.498;2023-08-07T09:01:18;25.10;84.10
45137;DHT22;30894;51.740;19.498;2023-08-07T09:03:45;24.90;84.70
45137;DHT22;30894;51.740;19.498;2023-08-07T09:06:15;24.80;85.00
45137;DHT22;30894;51.740;19.498;2023-08-07T09:08:43;24.90;84.10
45137;DHT22;30894;51.740;19.498;2023-08-07T09:11:12;25.00;83.80
45137;DHT22;30894;51.740;19.498;2023-08-07T09:13:41;25.00;83.30
45137;DHT22;30894;51.740;19.498;2023-08-07T09:16:09;24.90;83.40
45137;DHT22;30894;51.740;19.498;2023-08-07T09:18:37;25.40;81.80
45137;DHT22;30894;51.740;19.498;2023-08-07T09:21:03;25.80;80.20
45137;DHT22;30894;51.740;19.498;2023-08-07T09:23:29;26.50;78.70
45137;DHT22;30894;51.740;19.498;2023-08-07T09:26:01;26.40;77.90
45137;DHT22;30894;51.740;19.498;2023-08-07T09:28:29;25.70;78.60
45137;DHT22;30894;51.740;19.498;2023-08-07T09:30:56;24.90;79.70
45137;DHT22;30894;51.740;19.498;2023-08-07T09:33:26;24.70;80.50
45137;DHT22;30894;51.740;19.498;2023-08-07T09:36:00;24.60;80.80
45137;DHT22;30894;51.740;19.498;2023-08-07T09:38:30;24.20;81.30
45137;DHT22;30894;51.740;19.498;2023-08-07T09:41:01;23.90;82.20
45137;DHT22;30894;51.740;19.498;2023-08-07T09:43:36;24.30;81.90
45137;DHT22;30894;51.740;19.498;2023-08-07T09:46:07;25.70;78.30
45137;DHT22;30894;51.740;19.498;2023-08-07T09:48:42;25.90;76.30
45137;DHT22;30894;51.740;19.498;2023-08-07T09:51:10;26.40;74.60
45137;DHT22;30894;51.740;19.498;2023-08-07T09:53:40;26.80;72.60
45137;DHT22;30894;51.740;19.498;2023-08-07T09:56:06;27.10;71.60
45137;DHT22;30894;51.740;19.498;2023-08-07T09:58:32;28.00;70.40
45137;DHT22;30894;51.740;19.498;2023-08-07T10:01:02;27.90;69.70
45137;DHT22;30894;51.740;19.498;2023-08-07T10:03:33;27.40;70.40
45137;DHT22;30894;51.740;19.498;2023-08-07T10:06:02;28.20;68.70
45137;DHT22;30894;51.740;19.498;2023-08-07T10:08:30;28.80;66.70
45137;DHT22;30894;51.740;19.498;2023-08-07T10:10:58;29.40;65.80
45137;DHT22;30894;51.740;19.498;2023-08-07T10:13:25;29.70;64.50
45137;DHT22;30894;51.740;19.498;2023-08-07T10:15:52;29.50;64.00
45137;DHT22;30894;51.740;19.498;2023-08-07T10:18:19;29.10;64.70
45137;DHT22;30894;51.740;19.498;2023-08-07T10:20:47;28.20;66.00
45137;DHT22;30894;51.740;19.498;2023-08-07T10:23:15;27.40;67.60
45137;DHT22;30894;51.740;19.498;2023-08-07T10:25:44;26.90;68.20
45137;DHT22;30894;51.740;19.498;2023-08-07T10:28:16;26.70;68.70
45137;DHT22;30894;51.740;19.498;2023-08-07T10:30:43;26.10;69.20
45137;DHT22;30894;51.740;19.498;2023-08-07T10:33:12;25.80;69.70
45137;DHT22;30894;51.740;19.498;2023-08-07T10:35:47;26.40;68.90
45137;DHT22;30894;51.740;19.498;2023-08-07T10:38:19;27.40;66.80
45137;DHT22;30894;51.740;19.498;2023-08-07T10:43:27;27.70;65.80
45137;DHT22;30894;51.740;19.498;2023-08-07T10:46:03;28.70;64.80
45137;DHT22;30894;51.740;19.498;2023-08-07T10:48:40;29.10;63.30
45137;DHT22;30894;51.740;19.498;2023-08-07T10:51:13;29.50;62.50
45137;DHT22;30894;51.740;19.498;2023-08-07T10:53:45;29.80;61.70
45137;DHT22;30894;51.740;19.498;2023-08-07T10:58:50;29.90;61.10
45137;DHT22;30894;51.740;19.498;2023-08-07T11:04:14;31.00;60.50
45137;DHT22;30894;51.740;19.498;2023-08-07T11:06:43;30.70;59.90
45137;DHT22;30894;51.740;19.498;2023-08-07T11:09:13;30.90;61.00
45137;DHT22;30894;51.740;19.498;2023-08-07T11:11:42;30.90;59.40
45137;DHT22;30894;51.740;19.498;2023-08-07T11:14:18;30.90;59.30
45137;DHT22;30894;51.740;19.498;2023-08-07T11:16:48;31.00;58.90
45137;DHT22;30894;51.740;19.498;2023-08-07T11:19:18;31.00;58.60
45137;DHT22;30894;51.740;19.498;2023-08-07T11:21:46;30.70;59.00
45137;DHT22;30894;51.740;19.498;2023-08-07T11:24:14;29.90;59.90
45137;DHT22;30894;51.740;19.498;2023-08-07T11:26:46;30.00;60.20
45137;DHT22;30894;51.740;19.498;2023-08-07T11:29:19;29.90;59.90
45137;DHT22;30894;51.740;19.498;2023-08-07T11:31:53;29.60;60.60
45137;DHT22;30894;51.740;19.498;2023-08-07T11:34:20;29.50;60.70
45137;DHT22;30894;51.740;19.498;2023-08-07T11:36:50;30.20;60.20
45137;DHT22;30894;51.740;19.498;2023-08-07T11:39:18;30.90;59.10
45137;DHT22;30894;51.740;19.498;2023-08-07T11:41:52;30.80;58.70
45137;DHT22;30894;51.740;19.498;2023-08-07T11:44:19;30.80;58.50
45137;DHT22;30894;51.740;19.498;2023-08-07T11:46:46;30.40;58.80
45137;DHT22;30894;51.740;19.498;2023-08-07T11:49:16;29.60;59.70
45137;DHT22;30894;51.740;19.498;2023-08-07T11:51:43;29.60;60.00
45137;DHT22;30894;51.740;19.498;2023-08-07T11:54:14;30.10;59.10
45137;DHT22;30894;51.740;19.498;2023-08-07T11:56:41;30.00;58.50
45137;DHT22;30894;51.740;19.498;2023-08-07T11:59:08;29.40;59.10
45137;DHT22;30894;51.740;19.498;2023-08-07T12:01:38;29.30;59.50
45137;DHT22;30894;51.740;19.498;2023-08-07T12:04:17;29.60;58.90
45137;DHT22;30894;51.740;19.498;2023-08-07T12:06:57;29.90;58.20
45137;DHT22;30894;51.740;19.498;2023-08-07T12:09:27;30.20;57.70
45137;DHT22;30894;51.740;19.498;2023-08-07T12:11:57;30.20;57.30
45137;DHT22;30894;51.740;19.498;2023-08-07T12:14:35;29.80;57.50
45137;DHT22;30894;51.740;19.498;2023-08-07T12:17:11;28.90;58.20
45137;DHT22;30894;51.740;19.498;2023-08-07T12:19:41;28.50;58.90
45137;DHT22;30894;51.740;19.498;2023-08-07T12:22:10;28.10;59.50
45137;DHT22;30894;51.740;19.498;2023-08-07T12:24:43;27.90;59.90
45137;DHT22;30894;51.740;19.498;2023-08-07T12:27:11;28.30;59.60
45137;DHT22;30894;51.740;19.498;2023-08-07T12:29:42;28.50;59.30
45137;DHT22;30894;51.740;19.498;2023-08-07T12:32:19;28.60;58.90
45137;DHT22;30894;51.740;19.498;2023-08-07T12:34:46;29.10;57.90
45137;DHT22;30894;51.740;19.498;2023-08-07T12:37:12;28.80;58.00
45137;DHT22;30894;51.740;19.498;2023-08-07T12:39:38;28.00;58.80
45137;DHT22;30894;51.740;19.498;2023-08-07T12:42:05;27.10;59.80
45137;DHT22;30894;51.740;19.498;2023-08-07T12:44:32;26.30;60.80
45137;DHT22;30894;51.740;19.498;2023-08-07T12:46:59;25.80;61.70
45137;DHT22;30894;51.740;19.498;2023-08-07T12:49:26;26.30;61.10
45137;DHT22;30894;51.740;19.498;2023-08-07T12:51:52;26.90;59.80
45137;DHT22;30894;51.740;19.498;2023-08-07T12:54:19;27.40;59.10
45137;DHT22;30894;51.740;19.498;2023-08-07T12:56:49;27.50;58.20
45137;DHT22;30894;51.740;19.498;2023-08-07T12:59:21;27.50;57.90
45137;DHT22;30894;51.740;19.498;2023-08-07T13:01:47;27.80;57.70
45137;DHT22;30894;51.740;19.498;2023-08-07T13:04:14;27.10;57.90
45137;DHT22;30894;51.740;19.498;2023-08-07T13:06:42;26.30;58.60
45137;DHT22;30894;51.740;19.498;2023-08-07T13:09:08;25.90;59.40
45137;DHT22;30894;51.740;19.498;2023-08-07T13:11:34;25.50;59.80
45137;DHT22;30894;51.740;19.498;2023-08-07T13:14:00;25.20;60.30
45137;DHT22;30894;51.740;19.498;2023-08-07T13:16:26;24.80;60.70
45137;DHT22;30894;51.740;19.498;2023-08-07T13:18:52;24.60;61.10
45137;DHT22;30894;51.740;19.498;2023-08-07T13:21:18;24.20;61.50
45137;DHT22;30894;51.740;19.498;2023-08-07T13:23:45;24.00;62.50
45137;DHT22;30894;51.740;19.498;2023-08-07T13:26:10;23.70;61.80
45137;DHT22;30894;51.740;19.498;2023-08-07T13:28:37;23.80;61.90
45137;DHT22;30894;51.740;19.498;2023-08-07T13:31:03;24.00;61.40
45137;DHT22;30894;51.740;19.498;2023-08-07T13:33:29;24.30;61.10
45137;DHT22;30894;51.740;19.498;2023-08-07T13:35:55;25.20;60.80
45137;DHT22;30894;51.740;19.498;2023-08-07T13:38:22;25.90;58.90
45137;DHT22;30894;51.740;19.498;2023-08-07T13:40:51;26.50;58.20
45137;DHT22;30894;51.740;19.498;2023-08-07T13:43:17;26.90;57.10
45137;DHT22;30894;51.740;19.498;2023-08-07T13:45:43;27.10;56.80
45137;DHT22;30894;51.740;19.498;2023-08-07T13:48:09;27.10;56.50
45137;DHT22;30894;51.740;19.498;2023-08-07T13:50:35;26.80;56.80
45137;DHT22;30894;51.740;19.498;2023-08-07T13:53:03;26.90;57.00
45137;DHT22;30894;51.740;19.498;2023-08-07T13:55:30;27.10;56.60
45137;DHT22;30894;51.740;19.498;2023-08-07T13:57:56;27.10;56.50
45137;DHT22;30894;51.740;19.498;2023-08-07T14:00:22;27.00;56.60
45137;DHT22;30894;51.740;19.498;2023-08-07T14:02:49;26.80;56.80
45137;DHT22;30894;51.740;19.498;2023-08-07T14:05:15;26.70;56.80
45137;DHT22;30894;51.740;19.498;2023-08-07T14:07:41;26.40;56.80
45137;DHT22;30894;51.740;19.498;2023-08-07T14:10:07;26.40;57.00
45137;DHT22;30894;51.740;19.498;2023-08-07T14:12:34;26.10;56.90
45137;DHT22;30894;51.740;19.498;2023-08-07T14:15:00;26.10;57.60
45137;DHT22;30894;51.740;19.498;2023-08-07T14:17:26;26.10;56.90
45137;DHT22;30894;51.740;19.498;2023-08-07T14:19:52;26.20;56.90
45137;DHT22;30894;51.740;19.498;2023-08-07T14:22:18;26.20;56.70
45137;DHT22;30894;51.740;19.498;2023-08-07T14:24:47;26.10;56.50
45137;DHT22;30894;51.740;19.498;2023-08-07T14:27:13;26.00;56.90
45137;DHT22;30894;51.740;19.498;2023-08-07T14:29:39;25.60;57.20
45137;DHT22;30894;51.740;19.498;2023-08-07T14:32:05;25.40;57.50
45137;DHT22;30894;51.740;19.498;2023-08-07T14:34:31;25.20;57.70
45137;DHT22;30894;51.740;19.498;2023-08-07T14:36:57;25.10;57.60
45137;DHT22;30894;51.740;19.498;2023-08-07T14:39:23;24.70;58.00
45137;DHT22;30894;51.740;19.498;2023-08-07T14:41:49;24.30;58.40
45137;DHT22;30894;51.740;19.498;2023-08-07T14:44:18;24.30;58.50
45137;DHT22;30894;51.740;19.498;2023-08-07T14:46:44;24.40;58.10
45137;DHT22;30894;51.740;19.498;2023-08-07T14:49:11;24.30;58.20
45137;DHT22;30894;51.740;19.498;2023-08-07T14:51:38;24.20;58.30
45137;DHT22;30894;51.740;19.498;2023-08-07T14:54:04;24.30;58.30
45137;DHT22;30894;51.740;19.498;2023-08-07T14:56:33;24.20;58.20
45137;DHT22;30894;51.740;19.498;2023-08-07T14:59:05;24.30;58.30
45137;DHT22;30894;51.740;19.498;2023-08-07T15:01:32;24.40;58.10
45137;DHT22;30894;51.740;19.498;2023-08-07T15:03:58;24.20;58.10
45137;DHT22;30894;51.740;19.498;2023-08-07T15:06:24;23.80;58.30
45137;DHT22;30894;51.740;19.498;2023-08-07T15:08:50;23.40;58.70
45137;DHT22;30894;51.740;19.498;2023-08-07T15:11:16;23.10;59.30
45137;DHT22;30894;51.740;19.498;2023-08-07T15:13:42;22.70;59.90
45137;DHT22;30894;51.740;19.498;2023-08-07T15:16:09;22.30;60.40
45137;DHT22;30894;51.740;19.498;2023-08-07T15:18:36;22.00;61.00
45137;DHT22;30894;51.740;19.498;2023-08-07T15:21:03;21.80;61.50
45137;DHT22;30894;51.740;19.498;2023-08-07T15:23:30;21.50;61.90
45137;DHT22;30894;51.740;19.498;2023-08-07T15:25:56;21.30;62.20
45137;DHT22;30894;51.740;19.498;2023-08-07T15:28:23;21.10;62.60
45137;DHT22;30894;51.740;19.498;2023-08-07T15:30:50;20.90;63.00
45137;DHT22;30894;51.740;19.498;2023-08-07T15:33:17;20.70;63.40
45137;DHT22;30894;51.740;19.498;2023-08-07T15:35:45;20.60;64.00
45137;DHT22;30894;51.740;19.498;2023-08-07T15:38:11;20.30;64.30